Burlington International Airport Burlington US
ICAO: KBTV
IATA: BTV
Category: Medium
Scheduled Services: Yes

Elevation: 335 ft
TransAlt. 18000 ft.

Airport Communications:
APP/DEP:121.1
ATIS:123.8
CTAF:118.3
GND:121.9
ANG OPS:125.125
ARNG OPS:41.2
RDO:122.2
TWR:118.3
UNICOM:122.95

KBTV Zoom In..

If you have problems with the map follow the link
https://www.worldairports.se/pages/airport.php?
ICAO=KBTV

Runways:

(A) RW 01 length 3611 ft width 75 ft
---- / hdg 6

(B) RW 15 length 8320 ft width 150 ft
ILS 110.30 / hdg 146

(C) RW 19 length 3611 ft width 75 ft
---- / hdg 186

(D) RW 33 length 8320 ft width 150 ft
ILS 110.30 / hdg 326

Location; KBTV
Day. 25 / Time. 23.25 Zulu
* Altimeter: 29.91
* Temperature: 03° c. 37.4°f.
* Wind from: 180° Speed 06 kn.
Dewpoint: 01° c.
Visibility: 10 Statute Miles.
Clouds: Overcast 2800 ft.
Conditions: Light Rain.

KBTV 252325Z 18006KT 10SM -RA OVC028 03/01 A2991 RMK AO2 P0000 T00330011


Wind From 180°
Speed 06 kn.

 
 
jpsmedia worldairports.se 2020   terms of use